Time;durP1;ratioP1;P1;durP2;ratioP2;P2;SDS_P1;SDS_P2;PMS_P1;PMS_P2;Temp;Humidity;BMP_temperature;BMP_pressure;BME280_temperature;BME280_humidity;BME280_pressure;Samples;Min_cycle;Max_cycle;Signal;HPM_P1;HPM_P2
2022/08/20 00:01:49;;;;;;;12.90;9.73;;;19.30;99.90;;;;;;6173597;23;20025;-85
2022/08/20 00:04:15;;;;;;;13.68;9.25;;;19.20;99.90;;;;;;6176276;23;20013;-84
2022/08/20 00:06:41;;;;;;;11.32;8.57;;;19.20;99.90;;;;;;6173978;23;20096;-85
2022/08/20 00:09:07;;;;;;;14.50;9.25;;;19.20;99.90;;;;;;6174355;23;20106;-85
2022/08/20 00:11:33;;;;;;;12.77;9.30;;;19.20;99.90;;;;;;6148807;23;20013;-85
2022/08/20 00:14:02;;;;;;;13.07;8.98;;;19.10;99.90;;;;;;6149383;22;20979;-85
2022/08/20 00:16:34;;;;;;;11.65;8.13;;;19.20;99.90;;;;;;6174964;22;20016;-85
2022/08/20 00:19:01;;;;;;;12.43;8.13;;;19.20;99.90;;;;;;6176248;22;20349;-85
2022/08/20 00:21:27;;;;;;;10.77;8.48;;;19.10;99.90;;;;;;6176685;22;20013;-85
2022/08/20 00:23:54;;;;;;;15.10;7.90;;;19.10;99.90;;;;;;6174060;22;20478;-85
2022/08/20 00:26:21;;;;;;;15.10;8.90;;;19.00;99.90;;;;;;6175873;22;20028;-85
2022/08/20 00:28:47;;;;;;;11.93;8.32;;;19.10;99.90;;;;;;6149050;23;20163;-85
2022/08/20 00:31:16;;;;;;;12.18;8.05;;;19.00;99.90;;;;;;6176559;22;20032;-85
2022/08/20 00:33:42;;;;;;;13.10;8.77;;;18.90;99.90;;;;;;6173934;22;20518;-85
2022/08/20 00:36:09;;;;;;;13.38;6.63;;;18.90;99.90;;;;;;6174577;23;20298;-85
2022/08/20 00:38:41;;;;;;;14.68;8.48;;;18.80;99.90;;;;;;6148806;23;20024;-85
2022/08/20 00:41:09;;;;;;;14.25;8.63;;;18.80;99.90;;;;;;6148708;23;20017;-85
2022/08/20 00:43:37;;;;;;;13.63;8.50;;;18.90;99.90;;;;;;6175543;23;20104;-85
2022/08/20 00:46:26;;;;;;;14.63;7.78;;;18.80;99.90;;;;;;6149176;22;20068;-84
2022/08/20 00:48:54;;;;;;;12.75;7.55;;;18.70;99.90;;;;;;6173384;23;20017;-85
2022/08/20 00:51:40;;;;;;;14.05;7.63;;;18.70;99.90;;;;;;6174059;22;20020;-85
2022/08/20 00:54:40;;;;;;;14.63;8.43;;;18.60;99.90;;;;;;6173834;23;20040;-85
2022/08/20 00:57:23;;;;;;;12.48;7.25;;;18.80;99.90;;;;;;6175380;23;20021;-85
2022/08/20 00:59:50;;;;;;;14.80;7.65;;;18.70;99.90;;;;;;6174091;22;20048;-85
2022/08/20 01:02:17;;;;;;;14.07;8.10;;;18.70;99.90;;;;;;6149807;22;20023;-85
2022/08/20 01:04:53;;;;;;;14.00;8.25;;;18.70;99.90;;;;;;6173928;23;20453;-85
2022/08/20 01:07:31;;;;;;;18.38;7.20;;;18.70;99.90;;;;;;6174371;23;20021;-85
2022/08/20 01:09:57;;;;;;;12.30;7.28;;;18.80;99.90;;;;;;6175335;22;20017;-85
2022/08/20 01:12:24;;;;;;;13.45;7.18;;;18.60;99.90;;;;;;6176734;22;20618;-85
2022/08/20 01:14:50;;;;;;;12.55;7.57;;;18.60;99.90;;;;;;6174235;22;20025;-85
2022/08/20 01:17:21;;;;;;;10.23;6.97;;;18.60;99.90;;;;;;6176162;23;20017;-85
2022/08/20 01:19:54;;;;;;;12.05;7.22;;;18.60;99.90;;;;;;6174037;22;20204;-85
2022/08/20 01:23:26;;;;;;;12.00;6.97;;;18.50;99.90;;;;;;6176079;22;20028;-85
2022/08/20 01:26:07;;;;;;;12.95;6.85;;;18.40;99.90;;;;;;6180588;23;20017;-85
2022/08/20 01:28:44;;;;;;;12.88;7.88;;;18.40;99.90;;;;;;6175620;22;20017;-85
2022/08/20 01:31:16;;;;;;;12.82;7.80;;;18.40;99.90;;;;;;6174254;22;20021;-85
2022/08/20 01:33:42;;;;;;;15.30;7.60;;;18.40;99.90;;;;;;6173867;22;20092;-85
2022/08/20 01:36:09;;;;;;;12.32;7.05;;;18.40;99.90;;;;;;6174363;22;20017;-85
2022/08/20 01:38:35;;;;;;;10.15;6.22;;;18.40;99.90;;;;;;6173287;22;20021;-85
2022/08/20 01:41:20;;;;;;;13.93;7.82;;;18.40;99.90;;;;;;6176037;23;20016;-85
2022/08/20 01:43:47;;;;;;;11.25;6.97;;;18.30;99.90;;;;;;6148694;23;20017;-85
2022/08/20 01:46:14;;;;;;;11.18;6.65;;;18.30;99.90;;;;;;6176079;23;20021;-85
2022/08/20 01:48:42;;;;;;;14.32;7.03;;;18.20;99.90;;;;;;6176048;22;20092;-85
2022/08/20 01:51:13;;;;;;;12.45;7.25;;;18.20;99.90;;;;;;6174091;23;20021;-85
2022/08/20 01:53:52;;;;;;;12.45;5.75;;;18.20;99.90;;;;;;6172817;22;20027;-85
2022/08/20 01:56:22;;;;;;;13.93;6.70;;;18.30;99.90;;;;;;6176165;22;20013;-85
2022/08/20 01:58:52;;;;;;;13.65;6.68;;;18.10;99.90;;;;;;6175386;22;20017;-85
2022/08/20 02:01:31;;;;;;;14.95;7.00;;;18.10;99.90;;;;;;6149316;22;20017;-86
2022/08/20 02:03:58;;;;;;;17.02;7.05;;;18.10;99.90;;;;;;6149398;22;20013;-85
2022/08/20 02:06:26;;;;;;;12.15;7.03;;;18.10;99.90;;;;;;6173407;23;20052;-85
2022/08/20 02:08:54;;;;;;;14.30;7.50;;;18.10;99.90;;;;;;6174676;22;20471;-85
2022/08/20 02:11:20;;;;;;;14.82;7.68;;;18.00;99.90;;;;;;6174152;22;20067;-85
2022/08/20 02:13:48;;;;;;;11.38;6.65;;;18.00;99.90;;;;;;6148601;22;20013;-85
2022/08/20 02:16:14;;;;;;;14.00;6.70;;;18.00;99.90;;;;;;6175583;23;20472;-85
2022/08/20 02:18:39;;;;;;;11.40;6.82;;;18.00;99.90;;;;;;6149083;23;20029;-85
2022/08/20 02:21:05;;;;;;;12.13;6.25;;;17.90;99.90;;;;;;6173333;23;20017;-85
2022/08/20 02:23:30;;;;;;;14.10;7.30;;;17.90;99.90;;;;;;6175457;23;20017;-86
2022/08/20 02:25:56;;;;;;;15.88;7.95;;;17.80;99.90;;;;;;6175242;23;20085;-85
2022/08/20 02:28:22;;;;;;;13.40;6.30;;;17.80;99.90;;;;;;6175711;23;20021;-85
2022/08/20 02:30:51;;;;;;;14.25;6.90;;;17.90;99.90;;;;;;6173391;23;20017;-85
2022/08/20 02:33:20;;;;;;;10.13;7.00;;;17.80;99.90;;;;;;6175594;22;20013;-85
2022/08/20 02:35:48;;;;;;;13.35;6.90;;;17.80;99.90;;;;;;6172409;22;20402;-85
2022/08/20 02:38:15;;;;;;;12.10;6.43;;;17.70;99.90;;;;;;6149198;22;20019;-85
2022/08/20 02:40:44;;;;;;;9.85;5.85;;;17.70;99.90;;;;;;6173390;23;20024;-85
2022/08/20 02:43:11;;;;;;;9.45;6.65;;;17.70;99.90;;;;;;6173687;22;20039;-85
2022/08/20 02:45:42;;;;;;;11.50;6.88;;;17.70;99.90;;;;;;6175309;23;20083;-85
2022/08/20 02:48:09;;;;;;;12.25;7.18;;;17.80;99.90;;;;;;6173857;22;20021;-86
2022/08/20 02:50:35;;;;;;;11.77;6.55;;;17.70;99.90;;;;;;6172411;23;20021;-85
2022/08/20 02:53:01;;;;;;;11.55;7.30;;;17.70;99.90;;;;;;6173586;23;20021;-85
2022/08/20 02:55:26;;;;;;;11.07;6.32;;;17.70;99.90;;;;;;6175748;22;20020;-85
2022/08/20 02:57:57;;;;;;;15.00;6.95;;;17.70;99.90;;;;;;6173197;23;20461;-85
2022/08/20 03:00:22;;;;;;;8.32;5.35;;;17.70;99.90;;;;;;6173938;22;20587;-85
2022/08/20 03:02:48;;;;;;;12.80;6.75;;;17.60;99.90;;;;;;6173918;22;20021;-85
2022/08/20 03:05:14;;;;;;;10.32;5.30;;;17.60;99.90;;;;;;6149458;23;20012;-85
2022/08/20 03:07:55;;;;;;;14.00;6.90;;;17.50;99.90;;;;;;6176141;23;20059;-85
2022/08/20 03:10:27;;;;;;;11.20;5.30;;;17.50;99.90;;;;;;6150128;22;20013;-85
2022/08/20 03:12:53;;;;;;;12.60;6.60;;;17.40;99.90;;;;;;6150152;22;20017;-85
2022/08/20 03:15:19;;;;;;;15.05;8.00;;;17.40;99.90;;;;;;6176679;23;20333;-85
2022/08/20 03:17:46;;;;;;;10.07;6.55;;;17.40;99.90;;;;;;6176119;23;20017;-84
2022/08/20 03:20:12;;;;;;;15.40;8.30;;;17.40;99.90;;;;;;6149613;22;20017;-85
2022/08/20 03:22:38;;;;;;;15.30;7.60;;;17.30;99.90;;;;;;6174589;23;20049;-85
2022/08/20 03:25:05;;;;;;;15.68;7.60;;;17.30;99.90;;;;;;6177134;22;20326;-85
2022/08/20 03:27:31;;;;;;;13.32;7.10;;;17.30;99.90;;;;;;6149990;22;20092;-85
2022/08/20 03:29:56;;;;;;;10.75;7.00;;;17.30;99.90;;;;;;6174473;23;20049;-85
2022/08/20 03:32:22;;;;;;;11.93;6.32;;;17.20;99.90;;;;;;6176773;23;20469;-85
2022/08/20 03:34:47;;;;;;;16.02;7.50;;;17.20;99.90;;;;;;6175689;23;20069;-85
2022/08/20 03:37:13;;;;;;;11.27;6.32;;;17.20;99.90;;;;;;6176452;23;20028;-85
2022/08/20 03:39:39;;;;;;;13.73;7.55;;;17.20;99.90;;;;;;6174141;23;20102;-85
2022/08/20 03:42:05;;;;;;;13.20;5.68;;;17.20;99.90;;;;;;6176803;22;20418;-85
2022/08/20 03:44:31;;;;;;;10.02;5.78;;;17.30;99.90;;;;;;6174911;23;20016;-84
2022/08/20 03:46:56;;;;;;;11.15;5.65;;;17.30;99.90;;;;;;6149428;22;20058;-85
2022/08/20 03:49:24;;;;;;;14.02;6.78;;;17.30;99.90;;;;;;6174008;23;20021;-85
2022/08/20 03:51:50;;;;;;;12.00;6.72;;;17.30;99.90;;;;;;6175717;23;20036;-85
2022/08/20 03:54:16;;;;;;;17.50;7.25;;;17.30;99.90;;;;;;6176631;23;20017;-85
2022/08/20 03:56:41;;;;;;;13.90;7.03;;;17.30;99.90;;;;;;6176155;23;20021;-84
2022/08/20 03:59:07;;;;;;;12.32;6.93;;;17.20;99.90;;;;;;6149690;23;20448;-85
2022/08/20 04:01:33;;;;;;;14.98;6.95;;;17.50;99.90;;;;;;6149586;23;20092;-85
2022/08/20 04:03:59;;;;;;;10.10;6.35;;;17.20;99.90;;;;;;6149175;23;20009;-85
2022/08/20 04:06:26;;;;;;;10.43;6.28;;;17.30;99.90;;;;;;6149787;23;20029;-85
2022/08/20 04:08:52;;;;;;;8.80;5.65;;;17.30;99.90;;;;;;6149543;23;20527;-85
2022/08/20 04:11:18;;;;;;;12.50;6.18;;;17.30;99.90;;;;;;6149425;23;20056;-85
2022/08/20 04:13:47;;;;;;;11.93;6.00;;;17.30;99.90;;;;;;6149379;23;20024;-86
2022/08/20 04:16:12;;;;;;;12.10;5.80;;;17.20;99.90;;;;;;6149896;23;20060;-85
2022/08/20 04:18:38;;;;;;;12.85;5.80;;;17.30;99.90;;;;;;6149042;23;20020;-85
2022/08/20 04:21:04;;;;;;;10.90;5.95;;;17.20;99.90;;;;;;6149420;23;20025;-85
2022/08/20 04:23:30;;;;;;;12.32;6.13;;;17.20;99.90;;;;;;6149784;23;20017;-85
2022/08/20 04:25:57;;;;;;;15.05;6.47;;;17.20;99.90;;;;;;6175634;23;20463;-85
2022/08/20 04:28:26;;;;;;;14.95;6.05;;;17.20;99.90;;;;;;6175997;23;20017;-85
2022/08/20 04:30:56;;;;;;;10.48;5.32;;;17.20;99.90;;;;;;6175408;23;20445;-85
2022/08/20 04:33:24;;;;;;;14.85;6.60;;;17.20;99.90;;;;;;6175829;23;20352;-85
2022/08/20 04:35:51;;;;;;;12.05;5.63;;;17.10;99.90;;;;;;6149269;23;20096;-85
2022/08/20 04:38:18;;;;;;;14.13;6.70;;;17.10;99.90;;;;;;6149554;23;20017;-85
2022/08/20 04:40:57;;;;;;;9.82;4.85;;;17.20;99.90;;;;;;6124574;23;20017;-85
2022/08/20 04:43:33;;;;;;;12.18;5.07;;;17.10;99.90;;;;;;6125178;23;20025;-84
2022/08/20 04:46:02;;;;;;;8.68;4.88;;;17.10;99.90;;;;;;6175899;23;20020;-85
2022/08/20 04:48:28;;;;;;;12.88;5.43;;;17.10;99.90;;;;;;6149562;23;20346;-85
2022/08/20 04:50:56;;;;;;;12.77;5.20;;;17.10;99.90;;;;;;6175068;23;20457;-85
2022/08/20 04:53:25;;;;;;;12.48;4.93;;;17.00;99.90;;;;;;6150133;23;20028;-85
2022/08/20 04:55:53;;;;;;;12.07;5.13;;;17.00;99.90;;;;;;6149431;23;20058;-85
2022/08/20 04:58:22;;;;;;;10.73;4.70;;;17.00;99.90;;;;;;6125382;23;20017;-85
2022/08/20 05:00:49;;;;;;;9.27;4.35;;;17.00;99.90;;;;;;6148957;23;20276;-85
2022/08/20 05:03:16;;;;;;;11.07;4.53;;;17.00;99.90;;;;;;6176126;23;20017;-85
2022/08/20 05:05:43;;;;;;;9.55;5.28;;;17.00;99.90;;;;;;6149178;23;20544;-85
2022/08/20 05:08:11;;;;;;;12.48;5.05;;;17.00;99.90;;;;;;6149578;23;20017;-85
2022/08/20 05:10:37;;;;;;;12.77;5.40;;;17.00;99.90;;;;;;6149189;23;20013;-85
2022/08/20 05:13:04;;;;;;;10.25;4.53;;;17.00;99.90;;;;;;6149484;23;20017;-85
2022/08/20 05:15:30;;;;;;;13.35;5.13;;;17.00;99.90;;;;;;6175844;23;20024;-85
2022/08/20 05:18:01;;;;;;;15.77;5.05;;;17.00;99.90;;;;;;6175782;23;20021;-85
2022/08/20 05:20:30;;;;;;;15.63;5.25;;;17.00;99.90;;;;;;6149658;23;20065;-85
2022/08/20 05:22:57;;;;;;;8.75;3.90;;;17.00;99.90;;;;;;6175157;23;20048;-85
2022/08/20 05:25:23;;;;;;;8.70;4.97;;;17.00;99.90;;;;;;6124941;23;20419;-85
2022/08/20 05:27:54;;;;;;;14.85;5.53;;;17.00;99.90;;;;;;6149243;23;20067;-85
2022/08/20 05:30:19;;;;;;;10.48;4.03;;;16.90;99.90;;;;;;6149083;23;20524;-85
2022/08/20 05:32:45;;;;;;;11.50;4.53;;;16.90;99.90;;;;;;6175539;23;20066;-84
2022/08/20 05:35:11;;;;;;;13.82;5.07;;;16.90;99.90;;;;;;6149453;23;20020;-85
2022/08/20 05:37:39;;;;;;;13.60;4.80;;;16.90;99.90;;;;;;6124561;23;20013;-85
2022/08/20 05:40:10;;;;;;;12.85;4.70;;;16.80;99.90;;;;;;6176254;23;20035;-85
2022/08/20 05:42:36;;;;;;;9.07;4.20;;;16.80;99.90;;;;;;6148804;23;20013;-85
2022/08/20 05:45:03;;;;;;;10.25;4.20;;;16.80;99.90;;;;;;6149107;23;20028;-85
2022/08/20 05:47:29;;;;;;;11.25;4.30;;;16.80;99.90;;;;;;6124527;23;20094;-85
2022/08/20 05:49:55;;;;;;;13.23;4.40;;;16.90;99.90;;;;;;6154303;23;20420;-85
2022/08/20 05:52:20;;;;;;;8.73;4.55;;;16.80;99.90;;;;;;6149196;23;20048;-85
2022/08/20 05:54:46;;;;;;;9.98;4.97;;;16.70;99.90;;;;;;6173474;23;20019;-85
2022/08/20 05:57:12;;;;;;;11.02;4.85;;;16.60;99.90;;;;;;6174435;23;20025;-85
2022/08/20 05:59:38;;;;;;;9.20;4.10;;;16.60;99.90;;;;;;6148711;23;20028;-85
2022/08/20 06:04:23;;;;;;;14.10;4.72;;;16.60;99.90;;;;;;6174177;22;20017;-84
2022/08/20 06:04:50;;;;;;;12.63;4.97;;;16.60;99.90;;;;;;6175442;23;20045;-85
2022/08/20 06:07:15;;;;;;;11.05;4.30;;;16.60;99.90;;;;;;6149353;23;20345;-85
2022/08/20 06:09:41;;;;;;;9.50;4.10;;;16.60;99.90;;;;;;6173963;22;20017;-85
2022/08/20 06:12:08;;;;;;;11.27;4.38;;;16.60;99.90;;;;;;6175914;23;20013;-85
2022/08/20 06:14:34;;;;;;;9.32;3.70;;;16.60;99.90;;;;;;6175611;23;20350;-85
2022/08/20 06:17:08;;;;;;;13.77;4.45;;;16.60;99.90;;;;;;6149158;23;20063;-85
2022/08/20 06:19:34;;;;;;;10.80;4.47;;;16.60;99.90;;;;;;6175368;22;20013;-85
2022/08/20 06:22:01;;;;;;;10.73;4.07;;;16.60;99.90;;;;;;6173737;22;20405;-85
2022/08/20 06:24:26;;;;;;;14.85;4.70;;;16.60;99.90;;;;;;6174276;22;20017;-85
2022/08/20 06:27:00;;;;;;;10.02;4.55;;;16.60;99.90;;;;;;6174690;23;20035;-85
2022/08/20 06:29:27;;;;;;;8.63;4.15;;;16.60;99.90;;;;;;6173201;23;20019;-85
2022/08/20 06:31:53;;;;;;;11.30;3.95;;;16.60;99.90;;;;;;6175299;22;20100;-85
2022/08/20 06:34:19;;;;;;;11.15;5.07;;;16.60;99.90;;;;;;6176257;22;20321;-85
2022/08/20 06:36:45;;;;;;;12.52;4.60;;;16.70;99.90;;;;;;6174502;23;20025;-85
2022/08/20 06:39:14;;;;;;;10.63;4.57;;;16.70;99.90;;;;;;6174972;22;20472;-85
2022/08/20 06:41:40;;;;;;;9.30;4.10;;;16.70;99.90;;;;;;6174443;23;20013;-85
2022/08/20 06:44:06;;;;;;;9.38;4.68;;;16.80;99.90;;;;;;6175201;23;20109;-85
2022/08/20 06:46:36;;;;;;;10.45;4.43;;;16.80;99.90;;;;;;6174778;23;20137;-85
2022/08/20 06:49:03;;;;;;;12.98;4.30;;;16.90;99.90;;;;;;6175065;23;20013;-85
2022/08/20 06:51:29;;;;;;;11.90;3.72;;;16.90;99.90;;;;;;6175003;23;20429;-85
2022/08/20 06:53:55;;;;;;;5.88;3.00;;;17.00;99.90;;;;;;6176390;23;20059;-85
2022/08/20 06:56:21;;;;;;;9.40;3.22;;;17.00;99.90;;;;;;6176503;23;20017;-85
2022/08/20 06:58:48;;;;;;;9.30;2.80;;;17.00;99.90;;;;;;6174838;23;20528;-85
2022/08/20 07:01:14;;;;;;;11.32;3.58;;;17.10;99.90;;;;;;6176681;23;20092;-85
2022/08/20 07:03:41;;;;;;;10.48;2.78;;;17.00;99.90;;;;;;6149757;22;20017;-85
2022/08/20 07:06:07;;;;;;;9.45;2.78;;;17.10;99.90;;;;;;6174865;22;20013;-85
2022/08/20 07:08:34;;;;;;;6.45;2.60;;;17.10;99.90;;;;;;6149273;22;20017;-85
2022/08/20 07:11:00;;;;;;;10.38;3.13;;;17.00;99.90;;;;;;6174421;22;20017;-85
2022/08/20 07:13:27;;;;;;;6.68;1.80;;;17.10;99.90;;;;;;6174959;22;20056;-85
2022/08/20 07:15:53;;;;;;;9.80;2.47;;;17.10;99.90;;;;;;6176362;22;20029;-85
2022/08/20 07:18:21;;;;;;;9.80;2.45;;;17.10;99.90;;;;;;6174963;22;20024;-85
2022/08/20 07:20:47;;;;;;;9.32;2.00;;;17.20;99.90;;;;;;6176294;22;20372;-85
2022/08/20 07:23:12;;;;;;;10.25;2.03;;;17.10;99.90;;;;;;6174917;23;20025;-85
2022/08/20 07:25:40;;;;;;;11.55;2.25;;;17.30;99.90;;;;;;6173867;23;20021;-85
2022/08/20 07:28:11;;;;;;;9.05;1.95;;;17.30;99.90;;;;;;6174794;22;20109;-85
2022/08/20 07:33:21;;;;;;;6.13;1.58;;;17.30;99.90;;;;;;6174878;23;20028;-85
2022/08/20 07:35:47;;;;;;;8.48;1.60;;;17.40;99.90;;;;;;6149349;23;20468;-85
2022/08/20 07:38:23;;;;;;;6.78;1.63;;;17.40;99.90;;;;;;6176697;23;20013;-85
2022/08/20 07:40:51;;;;;;;9.10;1.60;;;17.50;99.90;;;;;;6174074;22;20506;-85
2022/08/20 07:43:16;;;;;;;10.32;2.10;;;17.80;99.90;;;;;;6150123;22;20371;-85
2022/08/20 07:45:42;;;;;;;8.93;1.48;;;17.60;99.90;;;;;;6176206;23;20027;-85
2022/08/20 07:48:10;;;;;;;6.38;1.38;;;17.60;99.90;;;;;;6174657;23;20027;-85
2022/08/20 07:50:36;;;;;;;4.43;1.30;;;17.60;99.90;;;;;;6174169;23;20104;-85
2022/08/20 07:53:02;;;;;;;7.18;1.20;;;17.70;99.90;;;;;;6174882;22;20017;-85
2022/08/20 07:55:29;;;;;;;6.93;1.00;;;17.70;99.90;;;;;;6174068;23;20017;-85
2022/08/20 07:57:58;;;;;;;8.43;1.38;;;17.80;99.90;;;;;;6174226;23;20437;-85
2022/08/20 08:00:24;;;;;;;5.50;1.30;;;17.80;99.90;;;;;;6176660;22;20114;-85
2022/08/20 08:02:50;;;;;;;9.98;1.27;;;17.70;99.90;;;;;;6174175;22;20025;-85
2022/08/20 08:05:17;;;;;;;8.98;1.42;;;17.80;99.90;;;;;;6174331;23;20013;-85
2022/08/20 08:07:43;;;;;;;6.38;1.70;;;17.80;99.90;;;;;;6173795;22;20054;-85
2022/08/20 08:10:12;;;;;;;9.07;1.95;;;17.80;99.90;;;;;;6174626;23;20048;-85
2022/08/20 08:12:47;;;;;;;8.18;1.27;;;17.80;99.90;;;;;;6174889;22;20017;-85
2022/08/20 08:15:17;;;;;;;6.18;1.10;;;17.90;99.90;;;;;;6176543;23;20021;-85
2022/08/20 08:17:47;;;;;;;7.80;1.17;;;17.90;99.90;;;;;;6174379;23;20448;-85
2022/08/20 08:20:14;;;;;;;8.05;1.42;;;18.10;99.90;;;;;;6176299;22;20473;-85
2022/08/20 08:22:43;;;;;;;6.40;1.00;;;18.20;99.90;;;;;;6175802;23;20027;-84
2022/08/20 08:25:12;;;;;;;5.10;1.35;;;18.30;99.90;;;;;;6175555;22;20031;-85
2022/08/20 08:27:39;;;;;;;11.60;1.33;;;18.50;99.90;;;;;;6174360;22;20025;-85
2022/08/20 08:30:05;;;;;;;7.93;0.95;;;18.50;99.90;;;;;;6176327;22;20013;-85
2022/08/20 08:32:31;;;;;;;7.68;1.20;;;18.60;99.90;;;;;;6174545;22;20421;-85
2022/08/20 08:35:01;;;;;;;7.68;1.10;;;18.80;99.90;;;;;;6175903;23;20043;-85
2022/08/20 08:37:27;;;;;;;6.15;1.25;;;18.80;99.90;;;;;;6149806;22;20021;-85
2022/08/20 08:39:52;;;;;;;6.55;1.10;;;19.00;99.90;;;;;;6173734;23;20036;-85
2022/08/20 08:42:56;;;;;;;5.95;1.38;;;19.00;99.90;;;;;;6149635;23;20017;-85
2022/08/20 08:45:27;;;;;;;9.93;1.00;;;19.20;99.90;;;;;;6174423;23;20021;-85
2022/08/20 08:47:54;;;;;;;6.28;1.10;;;19.30;99.90;;;;;;6173875;22;20025;-85
2022/08/20 08:50:28;;;;;;;5.10;1.20;;;19.40;99.90;;;;;;6173658;23;20020;-85
2022/08/20 08:52:58;;;;;;;6.03;0.82;;;19.50;99.90;;;;;;6174116;23;20078;-85
2022/08/20 08:55:24;;;;;;;8.07;1.08;;;19.70;99.90;;;;;;6174390;23;20020;-85
2022/08/20 08:57:54;;;;;;;6.25;0.90;;;19.60;99.90;;;;;;6175620;22;20056;-85
2022/08/20 09:00:20;;;;;;;6.78;1.10;;;19.80;99.90;;;;;;6176777;23;20495;-85
2022/08/20 09:02:57;;;;;;;5.93;0.80;;;20.00;99.90;;;;;;6175788;22;20010;-85
2022/08/20 09:05:31;;;;;;;8.10;0.90;;;20.00;99.90;;;;;;6149275;22;20021;-85
2022/08/20 09:08:01;;;;;;;10.93;1.27;;;20.10;99.90;;;;;;6175684;22;20017;-85
2022/08/20 09:10:27;;;;;;;4.90;0.70;;;20.20;99.90;;;;;;6174630;22;20009;-85
2022/08/20 09:12:52;;;;;;;4.30;0.80;;;20.40;99.90;;;;;;6175966;23;20025;-85
2022/08/20 09:15:19;;;;;;;3.85;0.85;;;20.50;99.90;;;;;;6176396;23;20013;-85
2022/08/20 09:17:45;;;;;;;6.10;0.80;;;20.90;99.90;;;;;;6174373;22;20084;-85
2022/08/20 09:20:11;;;;;;;8.45;1.17;;;20.70;99.90;;;;;;6174355;23;20056;-85
2022/08/20 09:22:36;;;;;;;6.78;0.90;;;20.80;99.90;;;;;;6173074;23;20017;-85
2022/08/20 09:25:02;;;;;;;5.13;0.80;;;21.00;99.90;;;;;;6176132;23;20088;-85
2022/08/20 09:27:28;;;;;;;3.90;0.63;;;21.10;99.90;;;;;;6176160;22;20017;-85
2022/08/20 09:29:54;;;;;;;3.30;0.85;;;21.20;99.90;;;;;;6176072;22;20017;-85
2022/08/20 09:32:21;;;;;;;6.97;1.00;;;21.20;99.90;;;;;;6174810;23;20017;-85
2022/08/20 09:34:57;;;;;;;5.22;0.80;;;21.30;99.90;;;;;;6173958;22;20013;-85
2022/08/20 09:37:24;;;;;;;5.10;0.80;;;21.50;99.90;;;;;;6149207;22;20013;-85
2022/08/20 09:39:50;;;;;;;5.05;0.80;;;21.50;99.90;;;;;;6175948;22;20108;-85
2022/08/20 09:42:20;;;;;;;4.55;1.10;;;21.60;99.90;;;;;;6149401;23;20049;-85
2022/08/20 09:44:46;;;;;;;8.07;0.95;;;21.80;99.90;;;;;;6175903;22;20061;-85
2022/08/20 09:47:12;;;;;;;3.97;0.88;;;21.90;99.90;;;;;;6175882;23;20031;-85
2022/08/20 09:49:37;;;;;;;5.25;1.08;;;22.00;99.90;;;;;;6173630;23;20021;-85
2022/08/20 09:52:07;;;;;;;6.68;0.93;;;22.00;99.90;;;;;;6148842;23;20017;-85
2022/08/20 09:54:34;;;;;;;5.13;0.90;;;22.10;99.90;;;;;;6173711;22;20046;-85
2022/08/20 09:57:03;;;;;;;4.68;0.90;;;22.30;99.90;;;;;;6176139;23;20021;-85
2022/08/20 09:59:31;;;;;;;7.80;1.40;;;22.40;99.90;;;;;;6175901;22;20016;-85
2022/08/20 10:01:56;;;;;;;6.13;1.17;;;22.60;99.90;;;;;;6173449;22;20013;-84
2022/08/20 10:04:22;;;;;;;3.65;0.90;;;22.70;99.90;;;;;;6174056;23;20050;-85
2022/08/20 10:06:47;;;;;;;7.45;1.17;;;22.60;99.90;;;;;;6147689;23;20025;-85
2022/08/20 10:09:13;;;;;;;8.60;1.10;;;22.50;99.90;;;;;;6174200;23;20017;-85
2022/08/20 10:11:39;;;;;;;8.88;1.15;;;22.40;99.90;;;;;;6173614;23;20046;-85
2022/08/20 10:14:04;;;;;;;6.65;0.98;;;22.30;99.90;;;;;;6175539;23;20044;-85
2022/08/20 10:16:30;;;;;;;6.85;0.93;;;22.20;99.90;;;;;;6175863;23;20445;-85
2022/08/20 10:18:56;;;;;;;6.65;0.85;;;22.10;99.90;;;;;;6173763;22;20021;-85
2022/08/20 10:21:22;;;;;;;4.60;0.90;;;21.90;99.90;;;;;;6174470;23;20035;-85
2022/08/20 10:23:48;;;;;;;7.70;1.35;;;21.90;99.90;;;;;;6173594;23;20025;-85
2022/08/20 10:26:14;;;;;;;8.65;1.10;;;22.10;99.90;;;;;;6174050;23;20025;-85
2022/08/20 10:28:40;;;;;;;6.72;0.98;;;22.10;99.90;;;;;;6175233;23;20456;-85
2022/08/20 10:31:06;;;;;;;6.13;1.05;;;22.20;99.90;;;;;;6148706;23;20074;-85
2022/08/20 10:33:32;;;;;;;4.65;0.90;;;22.50;99.90;;;;;;6173594;22;20113;-85
2022/08/20 10:36:07;;;;;;;5.00;0.82;;;22.60;99.90;;;;;;6173945;22;20063;-85
2022/08/20 10:38:33;;;;;;;7.97;1.10;;;22.70;98.90;;;;;;6148685;22;20091;-85
2022/08/20 10:40:59;;;;;;;5.25;0.88;;;22.70;98.50;;;;;;6173674;23;20024;-85
2022/08/20 10:43:24;;;;;;;8.77;1.00;;;22.80;99.60;;;;;;6173775;23;20065;-85
2022/08/20 10:45:51;;;;;;;5.45;0.95;;;22.90;99.50;;;;;;6173709;23;20097;-85
2022/08/20 10:48:16;;;;;;;4.60;1.08;;;23.00;99.00;;;;;;6172711;22;20017;-85
2022/08/20 10:50:42;;;;;;;4.95;0.90;;;23.20;99.10;;;;;;6174465;23;20036;-85
2022/08/20 10:53:08;;;;;;;10.35;1.17;;;23.40;98.90;;;;;;6148532;23;20050;-85
2022/08/20 10:55:34;;;;;;;4.85;0.90;;;23.60;98.80;;;;;;6148109;23;20070;-86
2022/08/20 10:58:03;;;;;;;6.05;0.98;;;23.90;97.80;;;;;;6175023;23;20507;-86
2022/08/20 11:00:29;;;;;;;5.63;1.20;;;24.10;97.10;;;;;;6124316;23;20017;-86
2022/08/20 11:02:54;;;;;;;7.60;1.05;;;24.40;96.60;;;;;;6147944;23;20489;-86
2022/08/20 11:05:20;;;;;;;4.20;1.00;;;24.40;96.60;;;;;;6148884;23;20017;-86
2022/08/20 11:07:45;;;;;;;6.43;1.00;;;24.40;96.10;;;;;;6174965;23;20014;-86
2022/08/20 11:10:11;;;;;;;5.30;1.00;;;24.40;94.50;;;;;;6124312;23;20009;-86
2022/08/20 11:12:37;;;;;;;7.10;1.00;;;24.30;96.30;;;;;;6123759;23;20420;-86
2022/08/20 11:15:04;;;;;;;6.57;1.10;;;24.10;96.80;;;;;;6148903;23;20341;-85
2022/08/20 11:17:32;;;;;;;7.75;1.13;;;23.90;96.50;;;;;;6174224;23;20017;-86
2022/08/20 11:19:59;;;;;;;6.53;1.08;;;23.70;96.70;;;;;;6148588;23;20013;-85
2022/08/20 11:22:25;;;;;;;6.65;1.20;;;23.70;97.00;;;;;;6149691;23;20100;-86
2022/08/20 11:24:52;;;;;;;7.10;1.50;;;23.90;96.30;;;;;;6176322;23;20043;-86
2022/08/20 11:27:24;;;;;;;5.85;1.20;;;24.10;96.20;;;;;;6149498;23;20468;-86
2022/08/20 11:29:50;;;;;;;4.00;1.00;;;24.30;95.20;;;;;;6149655;23;20013;-87
2022/08/20 11:32:15;;;;;;;5.90;1.00;;;24.50;95.30;;;;;;6175837;23;20096;-86
2022/08/20 11:34:41;;;;;;;5.72;1.42;;;24.60;95.60;;;;;;6149360;23;20013;-86
2022/08/20 11:37:06;;;;;;;5.63;1.23;;;24.70;95.50;;;;;;6176060;23;20078;-86
2022/08/20 11:39:32;;;;;;;4.20;1.20;;;24.80;94.90;;;;;;6150400;23;20060;-86
2022/08/20 11:41:57;;;;;;;4.38;1.10;;;24.80;94.30;;;;;;6150126;23;20461;-86
2022/08/20 11:44:23;;;;;;;6.05;1.15;;;24.70;94.10;;;;;;6150136;23;20021;-86
2022/08/20 11:46:49;;;;;;;5.70;1.20;;;24.60;94.00;;;;;;6148826;23;20017;-86
2022/08/20 11:49:14;;;;;;;8.82;1.45;;;24.80;94.10;;;;;;6149676;23;20095;-85
2022/08/20 11:51:40;;;;;;;7.57;1.17;;;24.90;93.20;;;;;;6149704;23;20052;-86
2022/08/20 11:54:06;;;;;;;4.43;1.15;;;25.20;93.20;;;;;;6176333;23;20067;-86
2022/08/20 11:56:31;;;;;;;6.43;1.35;;;25.40;93.30;;;;;;6176540;23;20021;-86
2022/08/20 11:58:57;;;;;;;4.93;1.25;;;25.50;93.40;;;;;;6149454;23;20044;-87
2022/08/20 12:01:23;;;;;;;6.22;1.00;;;25.80;93.10;;;;;;6149829;23;20017;-86
2022/08/20 12:03:49;;;;;;;4.32;1.20;;;25.90;92.50;;;;;;6125267;23;20468;-86
2022/08/20 12:06:15;;;;;;;5.22;1.02;;;26.00;92.40;;;;;;6149327;23;20025;-86
2022/08/20 12:08:40;;;;;;;4.90;1.30;;;26.00;92.70;;;;;;6149289;23;20103;-87
2022/08/20 12:11:06;;;;;;;4.97;1.25;;;25.80;92.30;;;;;;6150308;23;20028;-86
2022/08/20 12:13:34;;;;;;;4.35;0.85;;;25.80;92.90;;;;;;6149515;23;20013;-86
2022/08/20 12:16:01;;;;;;;5.13;1.15;;;26.00;92.60;;;;;;6149857;23;20332;-87
2022/08/20 12:18:27;;;;;;;5.30;1.10;;;26.00;92.90;;;;;;6149687;23;20104;-86
2022/08/20 12:20:52;;;;;;;5.07;1.25;;;25.90;92.10;;;;;;6149963;23;20338;-86
2022/08/20 12:23:18;;;;;;;6.45;1.23;;;25.90;92.40;;;;;;6176117;23;20070;-86
2022/08/20 12:25:44;;;;;;;4.80;1.05;;;25.90;91.00;;;;;;6175362;23;20013;-86
2022/08/20 12:28:12;;;;;;;6.78;1.20;;;26.10;92.40;;;;;;6150191;23;20056;-87
2022/08/20 12:30:38;;;;;;;6.53;1.17;;;26.20;91.40;;;;;;6148863;23;20017;-87
2022/08/20 12:33:03;;;;;;;6.13;1.08;;;26.30;91.30;;;;;;6149081;23;20062;-86
2022/08/20 12:35:30;;;;;;;5.60;1.20;;;26.50;91.60;;;;;;6150122;23;20021;-87
2022/08/20 12:37:55;;;;;;;5.20;1.20;;;26.50;91.00;;;;;;6148867;23;20100;-87
2022/08/20 12:40:24;;;;;;;4.88;0.90;;;26.60;91.60;;;;;;6176199;23;20055;-86
2022/08/20 12:42:50;;;;;;;7.75;1.40;;;26.80;91.30;;;;;;6149192;23;20063;-87
2022/08/20 12:45:16;;;;;;;5.55;1.20;;;26.90;90.90;;;;;;6149806;23;20021;-87
2022/08/20 12:47:44;;;;;;;5.85;1.20;;;26.90;90.40;;;;;;6175691;23;20070;-87